Time;durP1;ratioP1;P1;durP2;ratioP2;P2;SDS_P1;SDS_P2;PMS_P1;PMS_P2;Temp;Humidity;BMP_temperature;BMP_pressure;BME280_temperature;BME280_humidity;BME280_pressure;Samples;Min_cycle;Max_cycle;Signal;HPM_P1;HPM_P2
2022/04/13 00:01:41;;;;;;;6.57;4.93;;;;;;;1.02;100.00;91054.84;5013831;28;20018;-70
2022/04/13 00:04:06;;;;;;;13.10;7.13;;;;;;;0.85;100.00;91050.50;5013860;28;20495;-69
2022/04/13 00:06:32;;;;;;;15.85;9.52;;;;;;;0.72;100.00;91056.13;5013555;28;20032;-70
2022/04/13 00:08:57;;;;;;;6.88;4.85;;;;;;;0.60;100.00;91042.38;5013489;28;20050;-70
2022/04/13 00:11:23;;;;;;;7.60;5.18;;;;;;;0.60;100.00;91052.84;4995949;28;20076;-70
2022/04/13 00:13:48;;;;;;;5.43;3.97;;;;;;;0.51;100.00;91049.09;5013612;28;20045;-70
2022/04/13 00:16:14;;;;;;;5.95;4.10;;;;;;;0.59;100.00;91052.06;5013471;28;20030;-70
2022/04/13 00:18:39;;;;;;;6.82;4.10;;;;;;;0.51;100.00;91036.81;5013437;28;20038;-70
2022/04/13 00:21:05;;;;;;;5.80;3.80;;;;;;;0.55;100.00;91048.34;5013440;28;20110;-70
2022/04/13 00:23:31;;;;;;;6.95;4.05;;;;;;;0.42;100.00;91047.94;5013384;28;20429;-70
2022/04/13 00:25:58;;;;;;;4.68;3.40;;;;;;;0.44;100.00;91053.72;5013584;28;20503;-69
2022/04/13 00:28:24;;;;;;;5.25;4.03;;;;;;;0.24;100.00;91055.06;5013465;28;20038;-70
2022/04/13 00:30:49;;;;;;;4.40;3.45;;;;;;;0.23;100.00;91050.06;5013106;28;20034;-71
2022/04/13 00:33:15;;;;;;;6.35;3.58;;;;;;;0.23;100.00;91042.22;5013196;28;20030;-69
2022/04/13 00:35:40;;;;;;;4.88;3.53;;;;;;;0.11;100.00;91042.34;5013397;28;20030;-70
2022/04/13 00:38:06;;;;;;;5.70;3.75;;;;;;;0.19;100.00;91043.75;5012983;28;20034;-70
2022/04/13 00:40:32;;;;;;;6.28;3.53;;;;;;;0.11;100.00;91047.56;5013023;28;20033;-70
2022/04/13 00:42:57;;;;;;;4.80;3.83;;;;;;;0.16;100.00;91049.44;5013018;28;20040;-69
2022/04/13 00:45:23;;;;;;;4.22;3.83;;;;;;;0.15;100.00;91040.81;5012958;28;20057;-69
2022/04/13 00:47:49;;;;;;;8.10;3.95;;;;;;;0.15;100.00;91040.03;5012871;28;20068;-70
2022/04/13 00:50:14;;;;;;;7.00;4.03;;;;;;;0.06;100.00;91037.06;5012840;28;20025;-70
2022/04/13 00:52:47;;;;;;;6.55;4.07;;;;;;;0.02;100.00;91022.88;5012215;28;20510;-69
2022/04/13 00:55:15;;;;;;;5.57;4.45;;;;;;;0.15;100.00;91034.78;5012836;28;20037;-70
2022/04/13 00:57:41;;;;;;;8.77;4.50;;;;;;;0.25;100.00;91034.91;5012739;28;20090;-70
2022/04/13 01:00:11;;;;;;;8.48;5.97;;;;;;;0.24;100.00;91039.38;5012781;28;20026;-69
2022/04/13 01:02:37;;;;;;;14.32;6.93;;;;;;;0.22;100.00;91038.81;5012694;28;20026;-70
2022/04/13 01:05:05;;;;;;;14.35;6.78;;;;;;;0.18;100.00;91037.72;4995032;28;20030;-70
2022/04/13 01:07:31;;;;;;;18.73;7.68;;;;;;;0.14;100.00;91038.44;5012520;28;20172;-70
2022/04/13 01:10:00;;;;;;;16.45;7.18;;;;;;;0.09;100.00;91041.78;5012311;28;20121;-70
2022/04/13 01:12:26;;;;;;;10.18;4.82;;;;;;;0.20;100.00;91037.50;5012527;28;20380;-70
2022/04/13 01:14:52;;;;;;;7.32;4.82;;;;;;;0.12;100.00;91023.00;5012507;28;20514;-70
2022/04/13 01:17:18;;;;;;;9.82;5.53;;;;;;;0.29;100.00;91039.41;5012361;28;20033;-71
2022/04/13 01:19:46;;;;;;;14.10;5.47;;;;;;;0.21;100.00;91032.00;5012392;28;20038;-71
2022/04/13 01:22:19;;;;;;;9.90;6.35;;;;;;;0.11;100.00;91024.03;5012632;28;20030;-69
2022/04/13 01:24:45;;;;;;;38.00;13.52;;;;;;;0.12;100.00;91030.84;5012624;28;20073;-70
2022/04/13 01:27:10;;;;;;;21.20;11.60;;;;;;;0.13;100.00;91032.41;5012163;28;20062;-70
2022/04/13 01:29:36;;;;;;;15.90;7.30;;;;;;;0.14;100.00;91035.81;5012121;28;20021;-71
2022/04/13 01:32:02;;;;;;;13.77;7.03;;;;;;;0.23;100.00;91037.00;5012234;28;20030;-70
2022/04/13 01:34:28;;;;;;;8.32;5.00;;;;;;;0.23;100.00;91040.41;5012182;28;20113;-70
2022/04/13 01:36:53;;;;;;;8.13;5.65;;;;;;;0.17;100.00;91022.28;5012048;28;20029;-70
2022/04/13 01:39:20;;;;;;;18.25;8.27;;;;;;;0.09;100.00;91020.88;5012096;28;20121;-70
2022/04/13 01:41:45;;;;;;;13.68;6.95;;;;;;;0.09;100.00;91026.09;5012098;28;20466;-70
2022/04/13 01:44:13;;;;;;;12.70;7.13;;;;;;;0.21;100.00;91039.06;5012021;28;20065;-70
2022/04/13 01:46:39;;;;;;;9.63;5.68;;;;;;;0.04;100.00;91033.91;5011840;28;20026;-70
2022/04/13 01:49:04;;;;;;;19.73;11.73;;;;;;;-0.06;100.00;91031.94;5011973;28;20034;-70
2022/04/13 01:51:29;;;;;;;17.25;10.32;;;;;;;-0.03;100.00;91026.22;5011767;28;20081;-70
2022/04/13 01:53:55;;;;;;;11.57;7.60;;;;;;;-0.03;100.00;91034.06;5011821;28;20502;-70
2022/04/13 01:56:20;;;;;;;11.10;5.55;;;;;;;-0.03;100.00;91035.88;5011620;28;20457;-70
2022/04/13 01:58:46;;;;;;;10.30;5.65;;;;;;;0.01;100.00;91031.78;5011698;28;20045;-70
2022/04/13 02:01:11;;;;;;;13.13;7.28;;;;;;;0.05;100.00;91030.25;5011753;28;20029;-71
2022/04/13 02:03:37;;;;;;;8.73;5.38;;;;;;;0.13;100.00;91024.56;5011147;28;20698;-70
2022/04/13 02:06:03;;;;;;;4.05;3.30;;;;;;;0.11;100.00;91018.00;5011329;28;20053;-70
2022/04/13 02:08:29;;;;;;;6.30;3.45;;;;;;;0.17;100.00;91015.22;5011442;28;20033;-69
2022/04/13 02:10:54;;;;;;;4.10;3.40;;;;;;;0.15;100.00;91019.88;5011533;28;20022;-70
2022/04/13 02:13:21;;;;;;;3.75;3.38;;;;;;;0.10;100.00;91016.44;5011586;28;20026;-70
2022/04/13 02:15:48;;;;;;;5.22;3.35;;;;;;;0.03;100.00;91015.84;5011613;28;20036;-70
2022/04/13 02:18:15;;;;;;;5.07;3.78;;;;;;;-0.11;100.00;91008.34;5011444;28;20040;-70
2022/04/13 02:20:40;;;;;;;6.55;3.35;;;;;;;-0.07;100.00;91014.66;5011546;28;20088;-70
2022/04/13 02:23:05;;;;;;;4.57;3.38;;;;;;;-0.13;100.00;91013.03;5011530;28;20517;-70
2022/04/13 02:25:33;;;;;;;4.63;3.30;;;;;;;-0.19;100.00;91008.75;5010291;28;20075;-70
2022/04/13 02:28:00;;;;;;;7.10;3.88;;;;;;;-0.19;100.00;91013.19;5011373;28;20044;-70
2022/04/13 02:30:26;;;;;;;6.75;3.90;;;;;;;-0.34;100.00;91011.94;5011324;28;20022;-69
2022/04/13 02:32:51;;;;;;;10.45;5.68;;;;;;;-0.46;100.00;91000.81;5011413;28;20121;-69
2022/04/13 02:35:17;;;;;;;25.73;9.07;;;;;;;-0.42;100.00;91004.53;5011429;28;20030;-70
2022/04/13 02:37:43;;;;;;;20.77;9.50;;;;;;;-0.42;100.00;91004.53;5011299;28;20038;-70
2022/04/13 02:40:10;;;;;;;22.83;9.20;;;;;;;-0.35;100.00;91002.53;5011348;28;20116;-70
2022/04/13 02:42:36;;;;;;;21.60;11.05;;;;;;;-0.28;100.00;91004.19;5011301;28;20040;-70
2022/04/13 02:45:05;;;;;;;17.40;7.10;;;;;;;-0.38;100.00;91002.22;5011330;28;20407;-70
2022/04/13 02:47:35;;;;;;;8.18;4.25;;;;;;;-0.38;100.00;91008.22;5011151;28;20080;-70
2022/04/13 02:50:01;;;;;;;5.82;4.25;;;;;;;-0.51;100.00;91003.34;5011246;28;20025;-71
2022/04/13 02:52:29;;;;;;;6.10;3.95;;;;;;;-0.60;100.00;90994.34;5011292;28;20037;-71
2022/04/13 02:54:56;;;;;;;6.00;3.90;;;;;;;-0.65;100.00;91000.28;5011273;28;20113;-71
2022/04/13 02:57:21;;;;;;;6.20;4.20;;;;;;;-0.64;100.00;90998.44;5011207;28;20066;-71
2022/04/13 02:59:48;;;;;;;8.15;4.00;;;;;;;-0.75;100.00;90999.34;5010848;28;20133;-71
2022/04/13 03:02:18;;;;;;;8.05;4.00;;;;;;;-0.83;100.00;90994.50;5011985;28;20034;-69
2022/04/13 03:04:46;;;;;;;9.57;3.90;;;;;;;-0.85;100.00;91002.59;5011444;28;20034;-69
2022/04/13 03:07:13;;;;;;;8.25;4.47;;;;;;;-0.90;100.00;91002.53;5011291;28;20402;-69
2022/04/13 03:09:39;;;;;;;6.10;4.68;;;;;;;-0.79;100.00;91013.91;5154001;22;20056;-70
2022/04/13 03:12:06;;;;;;;8.25;4.63;;;;;;;-0.71;100.00;91009.06;5030733;28;20038;-70
2022/04/13 03:14:31;;;;;;;7.60;5.30;;;;;;;-0.69;100.00;91003.59;5030783;28;20037;-70
2022/04/13 03:16:57;;;;;;;89.18;39.83;;;;;;;-0.64;100.00;91019.34;5033960;28;20127;-70
2022/04/13 03:19:22;;;;;;;26.48;13.60;;;;;;;-0.72;100.00;91004.09;5034398;28;20037;-70
2022/04/13 03:21:51;;;;;;;18.10;9.20;;;;;;;-0.79;100.00;91025.16;5034468;28;20419;-70
2022/04/13 03:24:21;;;;;;;12.80;7.20;;;;;;;-0.81;100.00;91013.34;5034368;28;20068;-70
2022/04/13 03:26:46;;;;;;;10.63;6.40;;;;;;;-0.75;100.00;91017.63;5034319;28;20553;-70
2022/04/13 03:29:11;;;;;;;7.93;5.47;;;;;;;-0.77;100.00;91019.69;5034181;28;20033;-70
2022/04/13 03:31:38;;;;;;;11.32;5.03;;;;;;;-0.79;100.00;91024.34;5034525;28;20053;-70
2022/04/13 03:34:03;;;;;;;9.35;5.07;;;;;;;-0.95;100.00;90999.81;5035205;28;20033;-70
2022/04/13 03:36:28;;;;;;;10.23;5.68;;;;;;;-0.81;100.00;91013.34;5034877;28;20486;-70
2022/04/13 03:38:54;;;;;;;10.40;5.53;;;;;;;-0.89;100.00;91013.75;5034723;28;20467;-70
2022/04/13 03:41:19;;;;;;;7.10;4.72;;;;;;;-0.87;100.00;91017.72;5035332;28;20022;-70
2022/04/13 03:43:45;;;;;;;9.00;6.07;;;;;;;-0.87;100.00;91015.09;5035046;28;20029;-70
2022/04/13 03:46:11;;;;;;;8.23;5.05;;;;;;;-0.86;100.00;91010.66;5034677;28;20102;-70
2022/04/13 03:48:36;;;;;;;29.38;9.80;;;;;;;-0.79;100.00;91026.94;5034512;28;20139;-70
2022/04/13 03:51:02;;;;;;;72.05;36.15;;;;;;;-0.78;100.00;91031.97;5034834;28;20021;-70
2022/04/13 03:53:27;;;;;;;18.02;11.05;;;;;;;-0.80;100.00;91028.78;5035113;28;20034;-70
2022/04/13 03:55:53;;;;;;;32.92;13.38;;;;;;;-0.70;100.00;91036.00;5035069;28;20108;-70
2022/04/13 03:58:18;;;;;;;77.45;27.88;;;;;;;-0.64;100.00;91040.25;5034600;28;20036;-70
2022/04/13 04:00:44;;;;;;;78.63;20.98;;;;;;;-0.59;100.00;91035.13;5034401;28;20021;-70
2022/04/13 04:03:09;;;;;;;60.90;26.13;;;;;;;-0.46;100.00;91044.47;5033192;28;20034;-69
2022/04/13 04:05:35;;;;;;;36.65;16.60;;;;;;;-0.53;100.00;91036.75;5033988;28;20026;-70
2022/04/13 04:08:00;;;;;;;29.50;13.32;;;;;;;-0.53;100.00;91046.44;5034355;28;20033;-70
2022/04/13 04:10:26;;;;;;;35.85;17.88;;;;;;;-0.58;100.00;91039.31;5033839;28;20045;-70
2022/04/13 04:12:51;;;;;;;36.03;12.63;;;;;;;-0.51;100.00;91050.38;5034173;28;20037;-71
2022/04/13 04:15:17;;;;;;;28.83;11.45;;;;;;;-0.48;100.00;91052.50;5034066;28;20065;-70
2022/04/13 04:17:42;;;;;;;19.95;9.07;;;;;;;-0.47;100.00;91046.28;5034422;28;20072;-70
2022/04/13 04:20:09;;;;;;;185.25;97.05;;;;;;;-0.28;100.00;91057.25;5033975;28;20026;-71
2022/04/13 04:22:35;;;;;;;61.05;24.33;;;;;;;-0.13;100.00;91061.91;5034312;28;20029;-71
2022/04/13 04:25:02;;;;;;;34.08;10.63;;;;;;;-0.18;100.00;91060.00;5034250;28;20037;-71
2022/04/13 04:27:28;;;;;;;39.13;12.18;;;;;;;-0.11;100.00;91068.47;5033256;28;20518;-71
2022/04/13 04:29:53;;;;;;;63.42;22.05;;;;;;;-0.01;100.00;91070.41;5033887;28;21973;-71
2022/04/13 04:32:18;;;;;;;37.88;18.83;;;;;;;0.20;100.00;91074.91;5034393;28;20030;-71
2022/04/13 04:34:44;;;;;;;62.38;22.00;;;;;;;0.64;100.00;91067.06;5033836;28;20410;-71
2022/04/13 04:37:09;;;;;;;51.65;21.92;;;;;;;0.82;100.00;91071.94;5034227;28;20055;-71
2022/04/13 04:39:35;;;;;;;45.10;22.40;;;;;;;0.83;100.00;91068.28;5034188;28;20033;-71
2022/04/13 04:42:02;;;;;;;35.08;19.90;;;;;;;0.87;100.00;91072.00;5033968;28;20029;-71
2022/04/13 04:44:27;;;;;;;25.15;13.65;;;;;;;1.18;100.00;91070.47;5033301;28;20037;-69
2022/04/13 04:46:53;;;;;;;19.02;8.43;;;;;;;2.40;100.00;91067.91;5033892;28;20021;-69
2022/04/13 04:49:18;;;;;;;11.07;5.97;;;;;;;5.16;100.00;91062.25;5033591;28;20029;-68
2022/04/13 04:51:44;;;;;;;16.23;5.72;;;;;;;7.58;95.56;91072.66;5033817;28;20037;-67
2022/04/13 04:54:09;;;;;;;43.10;10.82;;;;;;;9.20;77.53;91071.78;5033708;28;20398;-67
2022/04/13 04:56:35;;;;;;;16.02;6.68;;;;;;;10.70;68.74;91075.03;5033188;28;20029;-68
2022/04/13 04:59:01;;;;;;;68.97;40.67;;;;;;;11.14;66.15;91085.88;5033151;28;20029;-69
2022/04/13 05:01:26;;;;;;;11.48;4.82;;;;;;;12.43;58.38;91082.66;5033258;28;20409;-68
2022/04/13 05:03:52;;;;;;;26.08;5.93;;;;;;;13.02;53.53;91083.63;5033102;28;20029;-69
2022/04/13 05:06:22;;;;;;;29.02;6.53;;;;;;;13.87;51.06;91080.91;5032753;28;20108;-68
2022/04/13 05:08:49;;;;;;;39.20;14.13;;;;;;;14.57;47.97;91082.00;5032612;28;20099;-69
2022/04/13 05:11:15;;;;;;;47.92;16.38;;;;;;;15.01;46.87;91090.41;5033049;28;20080;-69
2022/04/13 05:13:41;;;;;;;103.57;30.23;;;;;;;15.34;45.63;91081.53;5032913;28;20026;-69
2022/04/13 05:16:07;;;;;;;71.05;27.52;;;;;;;16.11;44.27;91087.84;5032832;28;20036;-69
2022/04/13 05:18:35;;;;;;;80.15;36.80;;;;;;;16.80;43.01;91094.84;5032567;28;20032;-69
2022/04/13 05:21:00;;;;;;;57.67;32.00;;;;;;;17.46;42.13;91091.56;5032922;28;20392;-68
2022/04/13 05:23:26;;;;;;;60.80;30.13;;;;;;;18.65;39.05;91090.53;5032754;28;20550;-69
2022/04/13 05:25:51;;;;;;;34.67;16.70;;;;;;;19.04;38.59;91096.69;5032781;28;20419;-69
2022/04/13 05:28:17;;;;;;;84.50;24.70;;;;;;;19.24;38.39;91092.06;5032934;28;20079;-72
2022/04/13 05:30:43;;;;;;;44.15;13.90;;;;;;;17.28;40.55;91091.13;5032574;28;20033;-68
2022/04/13 05:33:08;;;;;;;57.85;18.23;;;;;;;17.75;39.74;91103.06;5032765;28;20025;-68
2022/04/13 05:35:33;;;;;;;29.35;10.02;;;;;;;17.17;39.53;91089.28;5014399;28;20037;-67
2022/04/13 05:38:02;;;;;;;27.10;7.72;;;;;;;18.18;38.69;91092.19;5011329;28;20037;-67
2022/04/13 05:40:28;;;;;;;13.65;4.43;;;;;;;20.13;36.72;91109.81;5012492;28;20108;-67
2022/04/13 05:42:54;;;;;;;21.40;6.03;;;;;;;19.52;35.62;91102.59;5012028;28;20054;-67
2022/04/13 05:45:20;;;;;;;19.73;7.68;;;;;;;20.09;35.04;91106.28;5012356;28;20085;-67
2022/04/13 05:47:45;;;;;;;7.15;3.50;;;;;;;21.50;33.69;91112.06;5012684;28;20438;-68
2022/04/13 05:50:12;;;;;;;17.02;5.38;;;;;;;20.89;34.08;91115.97;5012406;28;20541;-68
2022/04/13 05:52:39;;;;;;;35.03;9.85;;;;;;;23.11;32.03;91108.69;5012453;28;20077;-68
2022/04/13 05:55:05;;;;;;;19.55;7.55;;;;;;;24.18;30.89;91105.13;5012246;28;20484;-63
2022/04/13 05:57:31;;;;;;;10.13;6.38;;;;;;;24.98;30.18;91106.66;5011940;28;20396;-68
2022/04/13 05:59:56;;;;;;;11.73;5.38;;;;;;;25.54;28.79;91108.41;5012174;28;20040;-69
2022/04/13 06:02:22;;;;;;;17.95;7.47;;;;;;;25.29;28.33;91113.97;5012401;28;20518;-67
2022/04/13 06:04:47;;;;;;;21.70;9.80;;;;;;;25.82;28.32;91106.75;5012317;28;20034;-69
2022/04/13 06:07:13;;;;;;;18.75;7.75;;;;;;;26.83;27.30;91119.31;5012571;28;20030;-69
2022/04/13 06:09:39;;;;;;;10.45;3.63;;;;;;;26.74;26.75;91108.84;5012145;28;20038;-69
2022/04/13 06:12:05;;;;;;;15.00;4.07;;;;;;;26.75;27.62;91110.38;5012358;28;20411;-68
2022/04/13 06:14:30;;;;;;;9.65;4.10;;;;;;;26.79;27.08;91107.63;5012673;28;20128;-69
2022/04/13 06:16:56;;;;;;;13.75;3.53;;;;;;;26.98;26.42;91098.06;5012856;28;20488;-68
2022/04/13 06:19:21;;;;;;;42.50;6.28;;;;;;;26.21;27.43;91109.25;5012719;28;20038;-70
2022/04/13 06:21:46;;;;;;;26.08;6.20;;;;;;;26.80;27.75;91111.91;5012379;28;20103;-68
2022/04/13 06:24:12;;;;;;;7.45;3.80;;;;;;;25.45;28.25;91115.47;5012124;28;20510;-69
2022/04/13 06:26:37;;;;;;;28.50;5.75;;;;;;;25.41;28.63;91096.44;5012305;28;20026;-69
2022/04/13 06:29:03;;;;;;;20.27;5.90;;;;;;;24.09;30.33;91093.84;5012523;28;20095;-70
2022/04/13 06:31:29;;;;;;;14.23;4.15;;;;;;;23.37;31.17;91105.72;5012083;28;20025;-69
2022/04/13 06:33:54;;;;;;;13.48;4.85;;;;;;;22.50;34.12;91102.13;5012268;28;20539;-69
2022/04/13 06:36:20;;;;;;;9.27;4.30;;;;;;;21.66;33.55;91098.31;5012212;28;20129;-69
2022/04/13 06:38:45;;;;;;;35.92;5.30;;;;;;;22.24;33.56;91112.00;5011855;28;20471;-68
2022/04/13 06:41:11;;;;;;;17.10;5.78;;;;;;;20.71;36.10;91112.25;5012146;28;20450;-68
2022/04/13 06:43:37;;;;;;;12.55;6.70;;;;;;;20.18;37.38;91110.28;5012331;28;20534;-69
2022/04/13 06:46:03;;;;;;;15.25;7.88;;;;;;;18.30;40.56;91110.13;5012158;28;20088;-69
2022/04/13 06:48:28;;;;;;;24.52;10.93;;;;;;;19.55;40.02;91104.59;5011880;28;20024;-70
2022/04/13 06:50:54;;;;;;;27.63;10.27;;;;;;;17.61;41.78;91101.56;5013461;28;20506;-70
2022/04/13 06:53:20;;;;;;;38.80;12.35;;;;;;;21.23;36.54;91109.41;5015717;28;20120;-70
2022/04/13 06:55:47;;;;;;;27.13;9.52;;;;;;;21.16;35.61;91101.22;5016335;28;20034;-69
2022/04/13 06:58:14;;;;;;;15.38;9.00;;;;;;;19.76;37.68;91099.59;5015889;28;20038;-70
2022/04/13 07:00:39;;;;;;;22.10;10.10;;;;;;;21.60;35.47;91111.38;5016204;28;20387;-69
2022/04/13 07:03:05;;;;;;;19.20;8.00;;;;;;;21.52;35.22;91107.06;5016309;28;20033;-71
2022/04/13 07:05:31;;;;;;;19.67;7.93;;;;;;;19.74;37.18;91101.88;5016267;28;20026;-71
2022/04/13 07:07:57;;;;;;;46.92;9.25;;;;;;;22.02;33.75;91102.91;5015744;28;20060;-71
2022/04/13 07:10:22;;;;;;;13.43;7.07;;;;;;;20.64;35.85;91110.19;5016117;28;20061;-71
2022/04/13 07:12:48;;;;;;;22.08;7.18;;;;;;;21.85;33.21;91102.75;5015782;28;20026;-71
2022/04/13 07:15:17;;;;;;;17.02;6.28;;;;;;;23.44;32.23;91105.72;5015989;28;20061;-71
2022/04/13 07:17:43;;;;;;;36.95;8.88;;;;;;;23.17;31.87;91107.94;5015965;28;20025;-71
2022/04/13 07:20:09;;;;;;;18.40;7.55;;;;;;;22.52;33.26;91116.84;5015503;28;20034;-71
2022/04/13 07:22:48;;;;;;;20.85;6.43;;;;;;;23.17;31.80;91115.31;5015796;28;20022;-70
2022/04/13 07:25:15;;;;;;;21.65;6.88;;;;;;;22.21;32.36;91112.75;5015826;28;20117;-69
2022/04/13 07:27:41;;;;;;;20.40;6.05;;;;;;;22.58;32.19;91120.00;5014894;28;20041;-69
2022/04/13 07:30:08;;;;;;;33.30;6.32;;;;;;;21.62;32.76;91122.66;5014984;28;20029;-70
2022/04/13 07:32:33;;;;;;;16.13;5.05;;;;;;;20.34;34.35;91123.63;5015315;28;20053;-70
2022/04/13 07:34:59;;;;;;;11.88;5.05;;;;;;;20.20;33.05;91118.03;5015356;28;20053;-69
2022/04/13 07:37:25;;;;;;;9.07;5.22;;;;;;;20.11;34.21;91117.50;5011053;28;20088;-69
2022/04/13 07:39:54;;;;;;;9.35;6.13;;;;;;;21.18;33.31;91104.34;5014814;28;20034;-70
2022/04/13 07:42:23;;;;;;;13.75;4.57;;;;;;;22.64;30.92;91121.97;5014852;28;20026;-68
2022/04/13 07:44:49;;;;;;;12.85;5.45;;;;;;;22.17;31.32;91111.94;5014484;28;20085;-68
2022/04/13 07:47:14;;;;;;;20.67;6.10;;;;;;;21.12;33.92;91119.31;5014544;28;20034;-68
2022/04/13 07:49:44;;;;;;;20.83;5.72;;;;;;;22.42;33.19;91123.00;4997482;28;20037;-68
2022/04/13 07:52:09;;;;;;;8.90;6.05;;;;;;;23.05;30.83;91118.38;5014651;28;20084;-68
2022/04/13 07:54:36;;;;;;;9.00;4.70;;;;;;;20.72;32.42;91117.28;5014707;28;20021;-69
2022/04/13 07:57:02;;;;;;;7.72;4.85;;;;;;;20.97;33.15;91127.63;5014458;28;20029;-69
2022/04/13 07:59:28;;;;;;;15.27;5.85;;;;;;;19.99;33.32;91127.34;5014161;28;20053;-68
2022/04/13 08:01:54;;;;;;;38.95;7.03;;;;;;;21.16;33.41;91111.28;5013208;28;20496;-68
2022/04/13 08:04:20;;;;;;;19.83;5.07;;;;;;;22.30;31.40;91117.88;5014429;28;20082;-68
2022/04/13 08:06:45;;;;;;;14.48;6.88;;;;;;;21.59;31.83;91115.25;5014413;28;20048;-68
2022/04/13 08:09:11;;;;;;;19.63;5.85;;;;;;;22.88;30.91;91111.66;5014247;28;20147;-69
2022/04/13 08:11:36;;;;;;;35.85;6.60;;;;;;;23.18;29.95;91100.56;5014309;28;20022;-69
2022/04/13 08:14:02;;;;;;;20.70;5.10;;;;;;;21.74;29.68;91108.03;5013735;28;20673;-68
2022/04/13 08:16:27;;;;;;;38.30;5.43;;;;;;;23.24;29.25;91101.78;5014254;28;21337;-67
2022/04/13 08:18:53;;;;;;;27.52;5.30;;;;;;;23.07;28.51;91105.97;5013902;28;20034;-68
2022/04/13 08:21:18;;;;;;;14.35;4.63;;;;;;;22.63;29.35;91112.28;4996226;28;20034;-68
2022/04/13 08:23:44;;;;;;;25.30;4.68;;;;;;;23.68;29.18;91114.38;5013974;28;20061;-68
2022/04/13 08:26:09;;;;;;;7.72;4.50;;;;;;;21.83;30.79;91113.94;5013886;28;20026;-68
2022/04/13 08:28:35;;;;;;;6.80;4.47;;;;;;;23.05;30.63;91107.53;5013191;28;20061;-68
2022/04/13 08:31:04;;;;;;;16.20;5.30;;;;;;;25.12;27.60;91106.63;5014056;28;20026;-69
2022/04/13 08:33:30;;;;;;;22.80;5.05;;;;;;;25.15;28.23;91116.72;5013818;28;20026;-69
2022/04/13 08:35:55;;;;;;;8.30;4.88;;;;;;;25.06;27.61;91110.91;5013919;28;20415;-69
2022/04/13 08:38:20;;;;;;;9.77;4.60;;;;;;;23.92;28.67;91115.56;5013634;28;20034;-69
2022/04/13 08:40:51;;;;;;;16.38;5.53;;;;;;;24.24;28.38;91112.91;5013649;28;20025;-69
2022/04/13 08:43:22;;;;;;;8.10;4.80;;;;;;;26.00;27.30;91112.09;5012489;28;20049;-69
2022/04/13 08:45:55;;;;;;;8.65;4.43;;;;;;;23.27;28.99;91111.88;5013501;28;20411;-69
2022/04/13 08:48:23;;;;;;;16.38;4.82;;;;;;;26.20;25.93;91111.19;5013546;28;20538;-68
2022/04/13 08:50:54;;;;;;;30.70;6.35;;;;;;;26.58;24.90;91094.16;5013249;28;20109;-69
2022/04/13 08:53:23;;;;;;;17.92;5.80;;;;;;;24.93;27.07;91109.75;5014006;28;20026;-68
2022/04/13 08:55:53;;;;;;;28.13;5.00;;;;;;;25.47;26.81;91104.94;5013467;28;20030;-68
2022/04/13 08:58:41;;;;;;;17.02;4.60;;;;;;;25.64;27.92;91106.81;5012685;28;20077;-68
2022/04/13 09:01:16;;;;;;;49.40;7.00;;;;;;;23.00;30.60;91098.56;5013580;28;20030;-68
2022/04/13 09:03:48;;;;;;;9.35;4.03;;;;;;;23.29;29.12;91102.19;5013479;28;20112;-68
2022/04/13 09:06:15;;;;;;;43.67;6.20;;;;;;;23.37;29.62;91094.09;5013522;28;20062;-68
2022/04/13 09:08:54;;;;;;;38.05;6.18;;;;;;;22.87;29.35;91094.63;5012958;28;20080;-68
2022/04/13 09:11:21;;;;;;;19.92;5.68;;;;;;;24.15;27.89;91089.59;5013607;28;20029;-69
2022/04/13 09:13:47;;;;;;;135.40;11.07;;;;;;;24.17;27.48;91084.56;5012945;28;20030;-69
2022/04/13 09:16:13;;;;;;;20.00;5.07;;;;;;;25.85;26.72;91084.91;5013263;28;20080;-69
2022/04/13 09:18:39;;;;;;;9.07;3.65;;;;;;;24.02;27.75;91074.06;5012997;28;20068;-69
2022/04/13 09:21:04;;;;;;;6.50;4.07;;;;;;;23.73;27.91;91081.41;5013306;28;20057;-69
2022/04/13 09:23:30;;;;;;;5.28;3.92;;;;;;;24.67;26.26;91083.78;5013265;28;20109;-69
2022/04/13 09:25:58;;;;;;;6.13;3.90;;;;;;;24.23;27.63;91081.44;5013549;28;20399;-69
2022/04/13 09:28:24;;;;;;;28.58;5.90;;;;;;;25.74;26.05;91089.69;5013066;28;20129;-69
2022/04/13 09:30:52;;;;;;;12.05;4.10;;;;;;;25.76;25.31;91081.88;5012994;28;20025;-68
2022/04/13 09:33:17;;;;;;;8.82;4.25;;;;;;;24.75;26.18;91082.56;5012726;28;20048;-69
2022/04/13 09:35:43;;;;;;;10.30;4.95;;;;;;;25.41;28.08;91084.75;5013065;28;20040;-69
2022/04/13 09:38:09;;;;;;;47.00;10.13;;;;;;;24.58;26.31;91081.44;5012939;28;20061;-69
2022/04/13 09:40:35;;;;;;;11.32;4.30;;;;;;;23.13;27.47;91071.09;5013069;28;20026;-69
2022/04/13 09:43:08;;;;;;;19.15;5.13;;;;;;;23.69;28.12;91067.81;5013184;28;20091;-69
2022/04/13 09:45:48;;;;;;;17.45;3.80;;;;;;;24.76;28.00;91078.69;5012794;28;20044;-69
2022/04/13 09:48:15;;;;;;;9.50;4.13;;;;;;;26.25;26.02;91075.31;5012723;28;20044;-66
2022/04/13 09:50:43;;;;;;;13.02;4.28;;;;;;;27.18;23.59;91071.75;5012395;28;20026;-66
2022/04/13 09:53:12;;;;;;;27.42;4.22;;;;;;;22.35;28.49;91077.63;5012370;28;20050;-69
2022/04/13 09:55:43;;;;;;;6.93;3.50;;;;;;;20.31;29.86;91070.34;5009070;28;20109;-66
2022/04/13 09:58:18;;;;;;;18.92;3.97;;;;;;;21.95;31.33;91069.56;5012392;28;20056;-70
2022/04/13 10:00:46;;;;;;;25.00;4.22;;;;;;;22.68;29.57;91073.94;4994473;28;20410;-67
2022/04/13 10:03:16;;;;;;;116.47;13.23;;;;;;;23.71;26.48;91065.50;5012402;28;20111;-69
2022/04/13 10:05:53;;;;;;;15.90;4.00;;;;;;;24.19;26.61;91074.06;5012255;28;20026;-69
2022/04/13 10:08:25;;;;;;;33.33;5.43;;;;;;;22.37;26.84;91072.59;4994224;28;20033;-69
2022/04/13 10:10:52;;;;;;;8.20;3.80;;;;;;;25.42;25.84;91069.97;5011847;28;20064;-68
2022/04/13 10:13:38;;;;;;;4.25;3.10;;;;;;;23.51;26.21;91073.19;5012100;28;20396;-69
2022/04/13 10:16:07;;;;;;;7.03;3.70;;;;;;;23.28;28.60;91073.47;5012151;28;20048;-69
2022/04/13 10:18:53;;;;;;;15.55;3.70;;;;;;;25.69;24.30;91073.72;5011894;28;20546;-67
2022/04/13 10:21:43;;;;;;;39.00;6.10;;;;;;;25.78;24.35;91073.28;5011817;28;20153;-67
2022/04/13 10:24:28;;;;;;;6.63;3.83;;;;;;;24.07;26.44;91066.28;5011442;28;20124;-68
2022/04/13 10:27:11;;;;;;;35.85;5.57;;;;;;;24.48;25.53;91063.22;5011620;28;20073;-66
2022/04/13 10:29:39;;;;;;;20.48;4.50;;;;;;;21.95;28.03;91064.16;5011774;28;20034;-68
2022/04/13 10:32:06;;;;;;;11.48;4.32;;;;;;;22.00;29.10;91067.28;5011912;28;20415;-69
2022/04/13 10:34:34;;;;;;;15.30;3.83;;;;;;;23.33;29.80;91069.63;5011958;28;20506;-70
2022/04/13 10:37:00;;;;;;;7.90;3.70;;;;;;;22.39;28.67;91066.78;5012123;28;20084;-70
2022/04/13 10:39:26;;;;;;;17.70;5.47;;;;;;;23.05;27.54;91073.03;5011973;28;20041;-70
2022/04/13 10:41:52;;;;;;;43.90;5.60;;;;;;;23.06;27.34;91065.66;5012594;28;20048;-69
2022/04/13 10:44:29;;;;;;;27.92;5.32;;;;;;;22.45;29.40;91061.81;5012496;28;20495;-69
2022/04/13 10:47:00;;;;;;;11.02;3.42;;;;;;;20.88;29.68;91065.72;5011715;28;20117;-69
2022/04/13 10:49:30;;;;;;;7.15;3.55;;;;;;;23.45;28.42;91063.84;5011918;28;20069;-69
2022/04/13 10:52:02;;;;;;;18.02;3.88;;;;;;;24.36;28.20;91069.81;5012346;28;20042;-68
2022/04/13 10:54:35;;;;;;;30.27;4.35;;;;;;;24.22;27.10;91060.84;5011996;28;20074;-67
2022/04/13 10:57:04;;;;;;;7.63;3.38;;;;;;;25.98;25.58;91053.28;5011828;28;20034;-68
2022/04/13 10:59:36;;;;;;;13.60;4.20;;;;;;;26.58;26.65;91053.25;5012070;28;20492;-68
2022/04/13 11:02:32;;;;;;;12.73;3.90;;;;;;;25.85;25.30;91057.66;5012386;28;20123;-68
2022/04/13 11:04:59;;;;;;;6.88;3.22;;;;;;;24.95;26.57;91042.09;5011255;28;20168;-68
2022/04/13 11:07:28;;;;;;;12.82;3.92;;;;;;;25.09;25.29;91047.53;5011738;28;20045;-69
2022/04/13 11:09:58;;;;;;;10.75;4.13;;;;;;;25.39;26.27;91049.72;5011487;28;20056;-68
2022/04/13 11:12:27;;;;;;;42.05;5.70;;;;;;;22.87;27.29;91043.06;5012148;28;20041;-69
2022/04/13 11:14:55;;;;;;;21.85;4.60;;;;;;;23.29;27.35;91038.97;5011613;28;20140;-69
2022/04/13 11:17:26;;;;;;;7.45;3.70;;;;;;;23.33;27.80;91036.25;5011866;28;20034;-68
2022/04/13 11:20:12;;;;;;;25.02;4.72;;;;;;;23.46;26.46;91049.09;5012026;28;20551;-69
2022/04/13 11:22:37;;;;;;;12.95;3.95;;;;;;;23.98;26.30;91040.66;4993733;28;20092;-69
2022/04/13 11:25:03;;;;;;;8.50;3.20;;;;;;;24.66;26.42;91053.06;5011667;28;20116;-68